sensor_id;sensor_type;location;lat;lon;timestamp;pressure;altitude;pressure_sealevel;temperature
53512;BMP280;39392;52.832;13.816;2023-11-19T00:00:51;101435.97;;;20.27
53512;BMP280;39392;52.832;13.816;2023-11-19T00:03:19;101424.25;;;20.27
53512;BMP280;39392;52.832;13.816;2023-11-19T00:05:46;101422.88;;;20.23
53512;BMP280;39392;52.832;13.816;2023-11-19T00:08:13;101406.06;;;20.19
53512;BMP280;39392;52.832;13.816;2023-11-19T00:10:40;101401.59;;;20.18
53512;BMP280;39392;52.832;13.816;2023-11-19T00:13:06;101392.59;;;20.18
53512;BMP280;39392;52.832;13.816;2023-11-19T00:15:33;101391.75;;;20.17
53512;BMP280;39392;52.832;13.816;2023-11-19T00:17:59;101377.97;;;20.19
53512;BMP280;39392;52.832;13.816;2023-11-19T00:20:29;101362.50;;;20.19
53512;BMP280;39392;52.832;13.816;2023-11-19T00:22:55;101353.31;;;20.20
53512;BMP280;39392;52.832;13.816;2023-11-19T00:25:22;101348.53;;;20.22
53512;BMP280;39392;52.832;13.816;2023-11-19T00:27:49;101348.38;;;20.24
53512;BMP280;39392;52.832;13.816;2023-11-19T00:30:17;101349.75;;;20.20
53512;BMP280;39392;52.832;13.816;2023-11-19T00:32:44;101347.34;;;20.17
53512;BMP280;39392;52.832;13.816;2023-11-19T00:35:11;101347.34;;;20.17
53512;BMP280;39392;52.832;13.816;2023-11-19T00:37:41;101342.75;;;20.17
53512;BMP280;39392;52.832;13.816;2023-11-19T00:40:09;101343.78;;;20.16
53512;BMP280;39392;52.832;13.816;2023-11-19T00:46:07;101339.19;;;20.08
53512;BMP280;39392;52.832;13.816;2023-11-19T00:48:33;101322.16;;;20.06
53512;BMP280;39392;52.832;13.816;2023-11-19T00:51:00;101315.03;;;20.05
53512;BMP280;39392;52.832;13.816;2023-11-19T00:53:26;101299.53;;;20.06
53512;BMP280;39392;52.832;13.816;2023-11-19T00:55:53;101302.25;;;20.06
53512;BMP280;39392;52.832;13.816;2023-11-19T00:58:19;101299.72;;;20.04
53512;BMP280;39392;52.832;13.816;2023-11-19T01:00:46;101301.59;;;20.04
53512;BMP280;39392;52.832;13.816;2023-11-19T01:03:12;101290.00;;;20.02
53512;BMP280;39392;52.832;13.816;2023-11-19T01:05:39;101274.06;;;19.99
53512;BMP280;39392;52.832;13.816;2023-11-19T01:08:06;101274.06;;;19.99
53512;BMP280;39392;52.832;13.816;2023-11-19T01:10:32;101258.56;;;19.99
53512;BMP280;39392;52.832;13.816;2023-11-19T01:13:00;101256.00;;;19.98
53512;BMP280;39392;52.832;13.816;2023-11-19T01:15:26;101252.97;;;20.01
53512;BMP280;39392;52.832;13.816;2023-11-19T01:17:53;101253.81;;;20.01
53512;BMP280;39392;52.832;13.816;2023-11-19T01:20:20;101242.06;;;20.01
53512;BMP280;39392;52.832;13.816;2023-11-19T01:22:47;101241.22;;;20.00
53512;BMP280;39392;52.832;13.816;2023-11-19T01:25:15;101223.72;;;19.95
53512;BMP280;39392;52.832;13.816;2023-11-19T01:27:42;101203.97;;;19.93
53512;BMP280;39392;52.832;13.816;2023-11-19T01:30:08;101205.00;;;19.92
53512;BMP280;39392;52.832;13.816;2023-11-19T01:32:41;101190.22;;;19.94
53512;BMP280;39392;52.832;13.816;2023-11-19T01:35:08;101197.53;;;19.94
53512;BMP280;39392;52.832;13.816;2023-11-19T01:37:34;101196.00;;;19.91
53512;BMP280;39392;52.832;13.816;2023-11-19T01:40:02;101198.72;;;19.91
53512;BMP280;39392;52.832;13.816;2023-11-19T01:42:37;101190.22;;;19.94
53512;BMP280;39392;52.832;13.816;2023-11-19T01:45:04;101188.00;;;19.98
53512;BMP280;39392;52.832;13.816;2023-11-19T01:47:33;101186.28;;;19.97
53512;BMP280;39392;52.832;13.816;2023-11-19T01:50:01;101179.16;;;19.96
53512;BMP280;39392;52.832;13.816;2023-11-19T01:52:28;101164.72;;;19.95
53512;BMP280;39392;52.832;13.816;2023-11-19T01:54:55;101156.56;;;19.95
53512;BMP280;39392;52.832;13.816;2023-11-19T01:57:22;101146.72;;;19.94
53512;BMP280;39392;52.832;13.816;2023-11-19T01:59:50;101136.81;;;19.93
53512;BMP280;39392;52.832;13.816;2023-11-19T02:02:17;101117.97;;;19.92
53512;BMP280;39392;52.832;13.816;2023-11-19T02:04:47;101104.38;;;19.92
53512;BMP280;39392;52.832;13.816;2023-11-19T02:07:14;101101.66;;;19.92
53512;BMP280;39392;52.832;13.816;2023-11-19T02:09:43;101105.41;;;19.90
53512;BMP280;39392;52.832;13.816;2023-11-19T02:12:10;101100.94;;;19.89
53512;BMP280;39392;52.832;13.816;2023-11-19T02:14:38;101091.78;;;19.90
53512;BMP280;39392;52.832;13.816;2023-11-19T02:17:04;101095.34;;;19.91
53512;BMP280;39392;52.832;13.816;2023-11-19T02:19:31;101074.63;;;19.90
53512;BMP280;39392;52.832;13.816;2023-11-19T02:21:57;101074.63;;;19.90
53512;BMP280;39392;52.832;13.816;2023-11-19T02:24:24;101061.38;;;19.87
53512;BMP280;39392;52.832;13.816;2023-11-19T02:29:22;101051.00;;;19.90
53512;BMP280;39392;52.832;13.816;2023-11-19T02:31:48;101039.25;;;19.90
53512;BMP280;39392;52.832;13.816;2023-11-19T02:34:15;101037.19;;;19.92
53512;BMP280;39392;52.832;13.816;2023-11-19T02:36:42;101038.88;;;19.93
53512;BMP280;39392;52.832;13.816;2023-11-19T02:39:09;101036.16;;;19.93
53512;BMP280;39392;52.832;13.816;2023-11-19T02:41:38;101029.03;;;19.92
53512;BMP280;39392;52.832;13.816;2023-11-19T02:44:06;101020.88;;;19.92
53512;BMP280;39392;52.832;13.816;2023-11-19T02:46:32;101013.56;;;19.93
53512;BMP280;39392;52.832;13.816;2023-11-19T02:48:59;101002.88;;;19.91
53512;BMP280;39392;52.832;13.816;2023-11-19T02:51:25;100982.97;;;19.90
53512;BMP280;39392;52.832;13.816;2023-11-19T02:53:54;100979.75;;;19.87
53512;BMP280;39392;52.832;13.816;2023-11-19T02:56:20;100973.63;;;19.85
53512;BMP280;39392;52.832;13.816;2023-11-19T02:58:52;100975.69;;;19.83
53512;BMP280;39392;52.832;13.816;2023-11-19T03:01:23;100979.06;;;19.85
53512;BMP280;39392;52.832;13.816;2023-11-19T03:03:57;100982.47;;;19.87
53512;BMP280;39392;52.832;13.816;2023-11-19T03:06:24;100969.38;;;19.90
53512;BMP280;39392;52.832;13.816;2023-11-19T03:08:51;100960.00;;;19.93
53512;BMP280;39392;52.832;13.816;2023-11-19T03:11:17;100949.97;;;19.94
53512;BMP280;39392;52.832;13.816;2023-11-19T03:13:44;100928.19;;;19.94
53512;BMP280;39392;52.832;13.816;2023-11-19T03:16:10;100921.91;;;19.93
53512;BMP280;39392;52.832;13.816;2023-11-19T03:18:37;100914.59;;;19.94
53512;BMP280;39392;52.832;13.816;2023-11-19T03:21:06;100922.75;;;19.94
53512;BMP280;39392;52.832;13.816;2023-11-19T03:23:32;100918.00;;;19.96
53512;BMP280;39392;52.832;13.816;2023-11-19T03:25:58;100925.31;;;19.95
53512;BMP280;39392;52.832;13.816;2023-11-19T03:28:25;100921.25;;;19.91
53512;BMP280;39392;52.832;13.816;2023-11-19T03:30:51;100910.53;;;19.89
53512;BMP280;39392;52.832;13.816;2023-11-19T03:33:19;100917.50;;;19.92
53512;BMP280;39392;52.832;13.816;2023-11-19T03:35:45;100900.34;;;19.92
53512;BMP280;39392;52.832;13.816;2023-11-19T03:38:12;100886.56;;;19.93
53512;BMP280;39392;52.832;13.816;2023-11-19T03:40:40;100887.59;;;19.92
53512;BMP280;39392;52.832;13.816;2023-11-19T03:43:07;100889.66;;;19.90
53512;BMP280;39392;52.832;13.816;2023-11-19T03:45:33;100882.88;;;19.86
53512;BMP280;39392;52.832;13.816;2023-11-19T03:48:00;100874.38;;;19.81
53512;BMP280;39392;52.832;13.816;2023-11-19T03:50:27;100862.50;;;19.82
53512;BMP280;39392;52.832;13.816;2023-11-19T03:52:53;100856.19;;;19.81
53512;BMP280;39392;52.832;13.816;2023-11-19T03:55:20;100842.09;;;19.86
53512;BMP280;39392;52.832;13.816;2023-11-19T03:57:46;100842.25;;;19.84
53512;BMP280;39392;52.832;13.816;2023-11-19T04:00:14;100824.44;;;19.82
53512;BMP280;39392;52.832;13.816;2023-11-19T04:02:42;100827.81;;;19.84
53512;BMP280;39392;52.832;13.816;2023-11-19T04:05:08;100822.16;;;19.85
53512;BMP280;39392;52.832;13.816;2023-11-19T04:07:36;100823.69;;;19.88
53512;BMP280;39392;52.832;13.816;2023-11-19T04:10:03;100834.22;;;19.91
53512;BMP280;39392;52.832;13.816;2023-11-19T04:12:30;100809.75;;;19.91
53512;BMP280;39392;52.832;13.816;2023-11-19T04:14:56;100797.81;;;19.92
53512;BMP280;39392;52.832;13.816;2023-11-19T04:17:26;100791.53;;;19.92
53512;BMP280;39392;52.832;13.816;2023-11-19T04:19:52;100782.53;;;19.91
53512;BMP280;39392;52.832;13.816;2023-11-19T04:22:19;100771.16;;;19.87
53512;BMP280;39392;52.832;13.816;2023-11-19T04:24:45;100763.84;;;19.88
53512;BMP280;39392;52.832;13.816;2023-11-19T04:27:12;100755.88;;;19.86
53512;BMP280;39392;52.832;13.816;2023-11-19T04:29:39;100742.16;;;19.80
53512;BMP280;39392;52.832;13.816;2023-11-19T04:32:06;100720.59;;;19.78
53512;BMP280;39392;52.832;13.816;2023-11-19T04:34:33;100703.44;;;19.78
53512;BMP280;39392;52.832;13.816;2023-11-19T04:37:00;100701.16;;;19.81
53512;BMP280;39392;52.832;13.816;2023-11-19T04:39:32;100706.44;;;19.83
53512;BMP280;39392;52.832;13.816;2023-11-19T04:41:59;100705.22;;;19.85
53512;BMP280;39392;52.832;13.816;2023-11-19T04:44:25;100707.94;;;19.85
53512;BMP280;39392;52.832;13.816;2023-11-19T04:46:52;100709.47;;;19.88
53512;BMP280;39392;52.832;13.816;2023-11-19T04:49:18;100711.34;;;19.87
53512;BMP280;39392;52.832;13.816;2023-11-19T04:51:45;100723.06;;;19.88
53512;BMP280;39392;52.832;13.816;2023-11-19T04:54:13;100705.91;;;19.87
53512;BMP280;39392;52.832;13.816;2023-11-19T04:56:40;100688.06;;;19.85
53512;BMP280;39392;52.832;13.816;2023-11-19T04:59:07;100682.13;;;19.81
53512;BMP280;39392;52.832;13.816;2023-11-19T05:01:35;100684.19;;;19.79
53512;BMP280;39392;52.832;13.816;2023-11-19T05:04:01;100669.97;;;19.77
53512;BMP280;39392;52.832;13.816;2023-11-19T05:06:29;100672.69;;;19.77
53512;BMP280;39392;52.832;13.816;2023-11-19T05:08:56;100675.56;;;19.76
53512;BMP280;39392;52.832;13.816;2023-11-19T05:11:22;100659.44;;;19.74
53512;BMP280;39392;52.832;13.816;2023-11-19T05:13:49;100645.16;;;19.72
53512;BMP280;39392;52.832;13.816;2023-11-19T05:16:16;100634.97;;;19.74
53512;BMP280;39392;52.832;13.816;2023-11-19T05:18:43;100627.28;;;19.78
53512;BMP280;39392;52.832;13.816;2023-11-19T05:21:11;100626.06;;;19.80
53512;BMP280;39392;52.832;13.816;2023-11-19T05:23:37;100626.53;;;19.84
53512;BMP280;39392;52.832;13.816;2023-11-19T05:26:04;100617.53;;;19.83
53512;BMP280;39392;52.832;13.816;2023-11-19T05:28:33;100623.81;;;19.84
53512;BMP280;39392;52.832;13.816;2023-11-19T05:31:00;100614.63;;;19.85
53512;BMP280;39392;52.832;13.816;2023-11-19T05:33:27;100604.78;;;19.84
53512;BMP280;39392;52.832;13.816;2023-11-19T05:35:54;100596.16;;;19.80
53512;BMP280;39392;52.832;13.816;2023-11-19T05:38:20;100590.06;;;19.78
53512;BMP280;39392;52.832;13.816;2023-11-19T05:40:47;100598.88;;;19.80
53512;BMP280;39392;52.832;13.816;2023-11-19T05:43:15;100579.66;;;19.82
53512;BMP280;39392;52.832;13.816;2023-11-19T05:45:43;100580.97;;;19.86
53512;BMP280;39392;52.832;13.816;2023-11-19T05:48:09;100574.50;;;19.87
53512;BMP280;39392;52.832;13.816;2023-11-19T05:50:36;100574.03;;;19.83
53512;BMP280;39392;52.832;13.816;2023-11-19T05:53:03;100563.34;;;19.82
53512;BMP280;39392;52.832;13.816;2023-11-19T05:55:35;100564.34;;;19.81
53512;BMP280;39392;52.832;13.816;2023-11-19T05:58:02;100555.84;;;19.84
53512;BMP280;39392;52.832;13.816;2023-11-19T06:00:30;100541.19;;;19.85
53512;BMP280;39392;52.832;13.816;2023-11-19T06:02:57;100550.38;;;19.84
53512;BMP280;39392;52.832;13.816;2023-11-19T06:05:23;100544.47;;;19.80
53512;BMP280;39392;52.832;13.816;2023-11-19T06:07:50;100546.84;;;19.83
53512;BMP280;39392;52.832;13.816;2023-11-19T06:10:17;100563.78;;;19.85
53512;BMP280;39392;52.832;13.816;2023-11-19T06:12:44;100567.19;;;19.87
53512;BMP280;39392;52.832;13.816;2023-11-19T06:15:12;100553.38;;;19.89
53512;BMP280;39392;52.832;13.816;2023-11-19T06:17:39;100556.78;;;19.91
53512;BMP280;39392;52.832;13.816;2023-11-19T06:20:06;100563.72;;;19.94
53512;BMP280;39392;52.832;13.816;2023-11-19T06:22:34;100556.22;;;19.96
53512;BMP280;39392;52.832;13.816;2023-11-19T06:25:01;100553.50;;;19.96
53512;BMP280;39392;52.832;13.816;2023-11-19T06:27:34;100529.84;;;19.96
53512;BMP280;39392;52.832;13.816;2023-11-19T06:30:00;100528.81;;;19.97
53512;BMP280;39392;52.832;13.816;2023-11-19T06:32:27;100522.38;;;19.98
53512;BMP280;39392;52.832;13.816;2023-11-19T06:34:54;100526.78;;;19.99
53512;BMP280;39392;52.832;13.816;2023-11-19T06:37:21;100519.66;;;19.98
53512;BMP280;39392;52.832;13.816;2023-11-19T06:39:48;100509.78;;;19.97
53512;BMP280;39392;52.832;13.816;2023-11-19T06:42:15;100500.63;;;19.98
53512;BMP280;39392;52.832;13.816;2023-11-19T06:44:41;100492.44;;;19.98
53512;BMP280;39392;52.832;13.816;2023-11-19T06:47:08;100464.38;;;19.98
53512;BMP280;39392;52.832;13.816;2023-11-19T06:49:34;100449.75;;;19.99
53512;BMP280;39392;52.832;13.816;2023-11-19T06:52:01;100443.28;;;20.00
53512;BMP280;39392;52.832;13.816;2023-11-19T06:54:27;100462.31;;;20.00
53512;BMP280;39392;52.832;13.816;2023-11-19T06:56:54;100462.97;;;20.02
53512;BMP280;39392;52.832;13.816;2023-11-19T06:59:20;100467.19;;;20.04
53512;BMP280;39392;52.832;13.816;2023-11-19T07:01:47;100460.06;;;20.03
53512;BMP280;39392;52.832;13.816;2023-11-19T07:04:14;100458.19;;;20.04
53512;BMP280;39392;52.832;13.816;2023-11-19T07:06:40;100462.78;;;20.03
53512;BMP280;39392;52.832;13.816;2023-11-19T07:09:10;100466.72;;;20.01
53512;BMP280;39392;52.832;13.816;2023-11-19T07:11:40;100459.97;;;19.97
53512;BMP280;39392;52.832;13.816;2023-11-19T07:14:07;100460.81;;;19.97
53512;BMP280;39392;52.832;13.816;2023-11-19T07:16:34;100461.66;;;19.98
53512;BMP280;39392;52.832;13.816;2023-11-19T07:19:01;100472.53;;;19.98
53512;BMP280;39392;52.832;13.816;2023-11-19T07:21:27;100472.00;;;20.02
53512;BMP280;39392;52.832;13.816;2023-11-19T07:23:57;100473.69;;;20.03
53512;BMP280;39392;52.832;13.816;2023-11-19T07:26:23;100471.59;;;20.05
53512;BMP280;39392;52.832;13.816;2023-11-19T07:28:50;100460.72;;;20.05
53512;BMP280;39392;52.832;13.816;2023-11-19T07:31:17;100462.59;;;20.05
53512;BMP280;39392;52.832;13.816;2023-11-19T07:33:46;100456.31;;;20.04
53512;BMP280;39392;52.832;13.816;2023-11-19T07:36:13;100459.88;;;20.05
53512;BMP280;39392;52.832;13.816;2023-11-19T07:38:40;100459.25;;;20.03
53512;BMP280;39392;52.832;13.816;2023-11-19T07:41:06;100470.97;;;20.03
53512;BMP280;39392;52.832;13.816;2023-11-19T07:43:35;100468.59;;;20.00
53512;BMP280;39392;52.832;13.816;2023-11-19T07:46:02;100476.56;;;20.02
53512;BMP280;39392;52.832;13.816;2023-11-19T07:48:30;100456.50;;;20.03
53512;BMP280;39392;52.832;13.816;2023-11-19T07:50:56;100450.41;;;20.01
53512;BMP280;39392;52.832;13.816;2023-11-19T07:53:23;100443.94;;;20.02
53512;BMP280;39392;52.832;13.816;2023-11-19T07:55:49;100439.72;;;19.99
53512;BMP280;39392;52.832;13.816;2023-11-19T07:58:16;100446.00;;;20.00
53512;BMP280;39392;52.832;13.816;2023-11-19T08:00:43;100450.41;;;20.01
53512;BMP280;39392;52.832;13.816;2023-11-19T08:03:09;100446.84;;;20.00
53512;BMP280;39392;52.832;13.816;2023-11-19T08:05:36;100449.56;;;20.00
53512;BMP280;39392;52.832;13.816;2023-11-19T08:08:03;100448.72;;;20.00
53512;BMP280;39392;52.832;13.816;2023-11-19T08:10:29;100450.41;;;20.01
53512;BMP280;39392;52.832;13.816;2023-11-19T08:12:56;100444.97;;;20.01
53512;BMP280;39392;52.832;13.816;2023-11-19T08:15:22;100442.06;;;20.02
53512;BMP280;39392;52.832;13.816;2023-11-19T08:17:51;100453.59;;;20.04
53512;BMP280;39392;52.832;13.816;2023-11-19T08:20:18;100450.03;;;20.04
53512;BMP280;39392;52.832;13.816;2023-11-19T08:22:45;100445.44;;;20.04
53512;BMP280;39392;52.832;13.816;2023-11-19T08:25:11;100445.44;;;20.04
53512;BMP280;39392;52.832;13.816;2023-11-19T08:27:37;100440.19;;;20.03
53512;BMP280;39392;52.832;13.816;2023-11-19T08:30:04;100424.03;;;20.01
53512;BMP280;39392;52.832;13.816;2023-11-19T08:32:32;100419.44;;;20.02
53512;BMP280;39392;52.832;13.816;2023-11-19T08:34:59;100418.44;;;20.03
53512;BMP280;39392;52.832;13.816;2023-11-19T08:37:25;100411.09;;;20.03
53512;BMP280;39392;52.832;13.816;2023-11-19T08:39:52;100410.44;;;20.01
53512;BMP280;39392;52.832;13.816;2023-11-19T08:42:19;100405.84;;;20.02
53512;BMP280;39392;52.832;13.816;2023-11-19T08:44:50;100408.75;;;20.00
53512;BMP280;39392;52.832;13.816;2023-11-19T08:47:17;100403.31;;;20.00
53512;BMP280;39392;52.832;13.816;2023-11-19T08:49:46;100396.00;;;20.01
53512;BMP280;39392;52.832;13.816;2023-11-19T08:52:29;100397.03;;;20.00
53512;BMP280;39392;52.832;13.816;2023-11-19T08:55:00;100388.88;;;20.00
53512;BMP280;39392;52.832;13.816;2023-11-19T08:57:26;100384.28;;;20.00
53512;BMP280;39392;52.832;13.816;2023-11-19T08:59:53;100382.41;;;20.01
53512;BMP280;39392;52.832;13.816;2023-11-19T09:02:19;100383.25;;;20.01
53512;BMP280;39392;52.832;13.816;2023-11-19T09:04:45;100379.69;;;20.01
53512;BMP280;39392;52.832;13.816;2023-11-19T09:07:12;100378.84;;;20.00
53512;BMP280;39392;52.832;13.816;2023-11-19T09:09:38;100388.69;;;20.01
53512;BMP280;39392;52.832;13.816;2023-11-19T09:12:05;100389.72;;;20.00
53512;BMP280;39392;52.832;13.816;2023-11-19T09:14:31;100378.84;;;20.00
53512;BMP280;39392;52.832;13.816;2023-11-19T09:16:58;100385.78;;;20.03
53512;BMP280;39392;52.832;13.816;2023-11-19T09:19:25;100387.25;;;20.05
53512;BMP280;39392;52.832;13.816;2023-11-19T09:21:55;100379.94;;;20.06
53512;BMP280;39392;52.832;13.816;2023-11-19T09:24:21;100389.81;;;20.07
53512;BMP280;39392;52.832;13.816;2023-11-19T09:26:48;100391.50;;;20.08
53512;BMP280;39392;52.832;13.816;2023-11-19T09:29:14;100387.94;;;20.07
53512;BMP280;39392;52.832;13.816;2023-11-19T09:31:41;100376.84;;;20.09
53512;BMP280;39392;52.832;13.816;2023-11-19T09:34:08;100370.38;;;20.10
53512;BMP280;39392;52.832;13.816;2023-11-19T09:36:35;100371.19;;;20.10
53512;BMP280;39392;52.832;13.816;2023-11-19T09:39:01;100370.19;;;20.11
53512;BMP280;39392;52.832;13.816;2023-11-19T09:41:29;100364.09;;;20.09
53512;BMP280;39392;52.832;13.816;2023-11-19T09:43:56;100367.00;;;20.08
53512;BMP280;39392;52.832;13.816;2023-11-19T09:46:22;100357.16;;;20.07
53512;BMP280;39392;52.832;13.816;2023-11-19T09:48:51;100352.69;;;19.99
53512;BMP280;39392;52.832;13.816;2023-11-19T09:51:21;100348.91;;;20.00
53512;BMP280;39392;52.832;13.816;2023-11-19T09:53:48;100343.28;;;20.02
53512;BMP280;39392;52.832;13.816;2023-11-19T09:56:16;100330.59;;;20.09
53512;BMP280;39392;52.832;13.816;2023-11-19T09:58:45;100327.41;;;20.05
53512;BMP280;39392;52.832;13.816;2023-11-19T10:01:13;100338.97;;;20.07
53512;BMP280;39392;52.832;13.816;2023-11-19T10:03:43;100329.63;;;20.17
53512;BMP280;39392;52.832;13.816;2023-11-19T10:06:13;100328.84;;;20.23
53512;BMP280;39392;52.832;13.816;2023-11-19T10:08:41;100324.53;;;20.28
53512;BMP280;39392;52.832;13.816;2023-11-19T10:11:08;100316.53;;;20.27
53512;BMP280;39392;52.832;13.816;2023-11-19T10:13:37;100312.25;;;20.18
53512;BMP280;39392;52.832;13.816;2023-11-19T10:16:09;100303.59;;;20.07
53512;BMP280;39392;52.832;13.816;2023-11-19T10:18:42;100301.50;;;20.09
53512;BMP280;39392;52.832;13.816;2023-11-19T10:21:09;100294.25;;;20.17
53512;BMP280;39392;52.832;13.816;2023-11-19T10:23:49;100296.41;;;20.21
53512;BMP280;39392;52.832;13.816;2023-11-19T10:26:16;100298.75;;;20.24
53512;BMP280;39392;52.832;13.816;2023-11-19T10:28:43;100301.91;;;20.28
53512;BMP280;39392;52.832;13.816;2023-11-19T10:31:15;100301.72;;;20.29
53512;BMP280;39392;52.832;13.816;2023-11-19T10:33:42;100292.50;;;20.30
53512;BMP280;39392;52.832;13.816;2023-11-19T10:36:11;100303.38;;;20.30
53512;BMP280;39392;52.832;13.816;2023-11-19T10:38:38;100294.38;;;20.30
53512;BMP280;39392;52.832;13.816;2023-11-19T10:41:05;100297.09;;;20.30
53512;BMP280;39392;52.832;13.816;2023-11-19T10:43:42;100284.53;;;20.29
53512;BMP280;39392;52.832;13.816;2023-11-19T10:46:11;100274.69;;;20.28
53512;BMP280;39392;52.832;13.816;2023-11-19T10:48:38;100280.78;;;20.30
53512;BMP280;39392;52.832;13.816;2023-11-19T10:51:05;100271.56;;;20.31
53512;BMP280;39392;52.832;13.816;2023-11-19T10:53:36;100266.31;;;20.29
53512;BMP280;39392;52.832;13.816;2023-11-19T10:56:02;100275.13;;;20.31
53512;BMP280;39392;52.832;13.816;2023-11-19T10:58:32;100276.16;;;20.30
53512;BMP280;39392;52.832;13.816;2023-11-19T11:01:03;100267.16;;;20.30
53512;BMP280;39392;52.832;13.816;2023-11-19T11:03:36;100264.25;;;20.31
53512;BMP280;39392;52.832;13.816;2023-11-19T11:06:06;100266.97;;;20.31
53512;BMP280;39392;52.832;13.816;2023-11-19T11:08:32;100265.09;;;20.32
53512;BMP280;39392;52.832;13.816;2023-11-19T11:11:02;100265.09;;;20.32
53512;BMP280;39392;52.832;13.816;2023-11-19T11:13:38;100264.25;;;20.31
53512;BMP280;39392;52.832;13.816;2023-11-19T11:16:07;100260.69;;;20.31
53512;BMP280;39392;52.832;13.816;2023-11-19T11:18:34;100263.22;;;20.32
53512;BMP280;39392;52.832;13.816;2023-11-19T11:21:05;100254.00;;;20.33
53512;BMP280;39392;52.832;13.816;2023-11-19T11:23:47;100248.56;;;20.33
53512;BMP280;39392;52.832;13.816;2023-11-19T11:28:58;100254.63;;;20.35
53512;BMP280;39392;52.832;13.816;2023-11-19T11:31:29;100245.47;;;20.36
53512;BMP280;39392;52.832;13.816;2023-11-19T11:36:53;100237.28;;;20.36
53512;BMP280;39392;52.832;13.816;2023-11-19T11:39:24;100240.84;;;20.37
53512;BMP280;39392;52.832;13.816;2023-11-19T11:45:02;100232.88;;;20.35
53512;BMP280;39392;52.832;13.816;2023-11-19T11:50:15;100229.75;;;20.38
53512;BMP280;39392;52.832;13.816;2023-11-19T11:57:58;100227.88;;;20.39
53512;BMP280;39392;52.832;13.816;2023-11-19T12:00:31;100231.44;;;20.39
53512;BMP280;39392;52.832;13.816;2023-11-19T12:02:59;100217.66;;;20.41
53512;BMP280;39392;52.832;13.816;2023-11-19T12:05:26;100219.31;;;20.42
53512;BMP280;39392;52.832;13.816;2023-11-19T12:07:56;100208.22;;;20.44
53512;BMP280;39392;52.832;13.816;2023-11-19T12:10:24;100208.22;;;20.44
53512;BMP280;39392;52.832;13.816;2023-11-19T12:12:53;100210.78;;;20.45
53512;BMP280;39392;52.832;13.816;2023-11-19T12:15:20;100216.22;;;20.45
53512;BMP280;39392;52.832;13.816;2023-11-19T12:17:51;100225.22;;;20.46
53512;BMP280;39392;52.832;13.816;2023-11-19T12:20:18;100226.25;;;20.45
53512;BMP280;39392;52.832;13.816;2023-11-19T12:23:00;100217.88;;;20.46
53512;BMP280;39392;52.832;13.816;2023-11-19T12:25:32;100214.13;;;20.47
53512;BMP280;39392;52.832;13.816;2023-11-19T12:28:00;100220.25;;;20.49
53512;BMP280;39392;52.832;13.816;2023-11-19T12:30:31;100212.09;;;20.49
53512;BMP280;39392;52.832;13.816;2023-11-19T12:32:57;100226.53;;;20.50
53512;BMP280;39392;52.832;13.816;2023-11-19T12:35:24;100220.25;;;20.49
53512;BMP280;39392;52.832;13.816;2023-11-19T12:37:51;100219.56;;;20.47
53512;BMP280;39392;52.832;13.816;2023-11-19T12:40:19;100220.41;;;20.48
53512;BMP280;39392;52.832;13.816;2023-11-19T12:42:49;100219.22;;;20.50
53512;BMP280;39392;52.832;13.816;2023-11-19T12:45:16;100223.59;;;20.51
53512;BMP280;39392;52.832;13.816;2023-11-19T12:47:43;100227.81;;;20.54
53512;BMP280;39392;52.832;13.816;2023-11-19T12:50:10;100226.97;;;20.53
53512;BMP280;39392;52.832;13.816;2023-11-19T12:52:36;100224.44;;;20.52
53512;BMP280;39392;52.832;13.816;2023-11-19T12:55:04;100219.66;;;20.54
53512;BMP280;39392;52.832;13.816;2023-11-19T12:57:39;100223.44;;;20.53
53512;BMP280;39392;52.832;13.816;2023-11-19T13:00:06;100223.44;;;20.53
53512;BMP280;39392;52.832;13.816;2023-11-19T13:02:46;100223.44;;;20.53
53512;BMP280;39392;52.832;13.816;2023-11-19T13:05:47;100221.72;;;20.52
53512;BMP280;39392;52.832;13.816;2023-11-19T13:08:07;100221.09;;;20.50
53512;BMP280;39392;52.832;13.816;2023-11-19T13:10:34;100215.66;;;20.50
53512;BMP280;39392;52.832;13.816;2023-11-19T13:13:16;100209.38;;;20.49
53512;BMP280;39392;52.832;13.816;2023-11-19T13:15:42;100206.44;;;20.51
53512;BMP280;39392;52.832;13.816;2023-11-19T13:18:11;100211.88;;;20.51
53512;BMP280;39392;52.832;13.816;2023-11-19T13:20:38;100222.56;;;20.52
53512;BMP280;39392;52.832;13.816;2023-11-19T13:23:05;100214.22;;;20.54
53512;BMP280;39392;52.832;13.816;2023-11-19T13:25:33;100213.16;;;20.55
53512;BMP280;39392;52.832;13.816;2023-11-19T13:27:59;100208.56;;;20.55
53512;BMP280;39392;52.832;13.816;2023-11-19T13:30:26;100218.41;;;20.56
53512;BMP280;39392;52.832;13.816;2023-11-19T13:32:53;100216.53;;;20.57
53512;BMP280;39392;52.832;13.816;2023-11-19T13:35:22;100211.09;;;20.57
53512;BMP280;39392;52.832;13.816;2023-11-19T13:37:49;100212.94;;;20.56
53512;BMP280;39392;52.832;13.816;2023-11-19T13:40:15;100203.94;;;20.56
53512;BMP280;39392;52.832;13.816;2023-11-19T13:42:42;100209.22;;;20.57
53512;BMP280;39392;52.832;13.816;2023-11-19T13:45:13;100212.94;;;20.56
53512;BMP280;39392;52.832;13.816;2023-11-19T13:47:40;100207.50;;;20.56
53512;BMP280;39392;52.832;13.816;2023-11-19T13:50:10;100209.38;;;20.56
53512;BMP280;39392;52.832;13.816;2023-11-19T13:52:38;100217.56;;;20.56
53512;BMP280;39392;52.832;13.816;2023-11-19T13:55:05;100222.81;;;20.57
53512;BMP280;39392;52.832;13.816;2023-11-19T13:57:33;100212.56;;;20.59
53512;BMP280;39392;52.832;13.816;2023-11-19T14:00:03;100215.50;;;20.58
53512;BMP280;39392;52.832;13.816;2023-11-19T14:02:33;100228.06;;;20.59
53512;BMP280;39392;52.832;13.816;2023-11-19T14:04:59;100225.72;;;20.56
53512;BMP280;39392;52.832;13.816;2023-11-19T14:07:26;100214.00;;;20.55
53512;BMP280;39392;52.832;13.816;2023-11-19T14:09:53;100228.44;;;20.56